sensor_id;sensor_type;location;lat;lon;timestamp;P1;durP1;ratioP1;P2;durP2;ratioP2
75941;SDS011;64622;46.220;19.878;2023-07-13T00:01:31;10.95;;;3.58;;
75941;SDS011;64622;46.220;19.878;2023-07-13T00:03:58;16.02;;;3.50;;
75941;SDS011;64622;46.220;19.878;2023-07-13T00:06:25;11.73;;;4.00;;
75941;SDS011;64622;46.220;19.878;2023-07-13T00:08:59;17.83;;;4.00;;
75941;SDS011;64622;46.220;19.878;2023-07-13T00:11:26;13.43;;;3.90;;
75941;SDS011;64622;46.220;19.878;2023-07-13T00:13:52;18.67;;;4.20;;
75941;SDS011;64622;46.220;19.878;2023-07-13T00:16:19;16.83;;;4.43;;
75941;SDS011;64622;46.220;19.878;2023-07-13T00:18:46;16.90;;;4.10;;
75941;SDS011;64622;46.220;19.878;2023-07-13T00:21:13;15.15;;;4.45;;
75941;SDS011;64622;46.220;19.878;2023-07-13T00:23:41;21.23;;;4.07;;
75941;SDS011;64622;46.220;19.878;2023-07-13T00:26:09;23.83;;;5.60;;
75941;SDS011;64622;46.220;19.878;2023-07-13T00:28:37;17.55;;;4.22;;
75941;SDS011;64622;46.220;19.878;2023-07-13T00:31:06;16.23;;;4.10;;
75941;SDS011;64622;46.220;19.878;2023-07-13T00:33:33;17.90;;;4.65;;
75941;SDS011;64622;46.220;19.878;2023-07-13T00:36:00;19.60;;;4.27;;
75941;SDS011;64622;46.220;19.878;2023-07-13T00:38:27;20.98;;;4.47;;
75941;SDS011;64622;46.220;19.878;2023-07-13T00:40:54;14.70;;;3.80;;
75941;SDS011;64622;46.220;19.878;2023-07-13T00:43:21;15.35;;;4.15;;
75941;SDS011;64622;46.220;19.878;2023-07-13T00:48:26;17.03;;;4.23;;
75941;SDS011;64622;46.220;19.878;2023-07-13T00:51:01;20.50;;;3.92;;
75941;SDS011;64622;46.220;19.878;2023-07-13T00:53:28;18.73;;;3.72;;
75941;SDS011;64622;46.220;19.878;2023-07-13T00:55:58;12.88;;;3.70;;
75941;SDS011;64622;46.220;19.878;2023-07-13T00:58:26;16.73;;;4.22;;
75941;SDS011;64622;46.220;19.878;2023-07-13T01:00:53;17.60;;;4.93;;
75941;SDS011;64622;46.220;19.878;2023-07-13T01:03:20;17.95;;;4.32;;
75941;SDS011;64622;46.220;19.878;2023-07-13T01:05:48;23.33;;;4.28;;
75941;SDS011;64622;46.220;19.878;2023-07-13T01:08:15;18.90;;;4.55;;
75941;SDS011;64622;46.220;19.878;2023-07-13T01:10:55;18.98;;;4.53;;
75941;SDS011;64622;46.220;19.878;2023-07-13T01:13:23;21.60;;;5.00;;
75941;SDS011;64622;46.220;19.878;2023-07-13T01:15:50;19.45;;;4.55;;
75941;SDS011;64622;46.220;19.878;2023-07-13T01:18:23;23.35;;;4.80;;
75941;SDS011;64622;46.220;19.878;2023-07-13T01:21:04;18.87;;;4.60;;
75941;SDS011;64622;46.220;19.878;2023-07-13T01:23:31;19.50;;;4.25;;
75941;SDS011;64622;46.220;19.878;2023-07-13T01:25:59;15.63;;;3.67;;
75941;SDS011;64622;46.220;19.878;2023-07-13T01:28:26;19.48;;;4.68;;
75941;SDS011;64622;46.220;19.878;2023-07-13T01:30:55;17.52;;;3.65;;
75941;SDS011;64622;46.220;19.878;2023-07-13T01:33:23;15.18;;;4.35;;
75941;SDS011;64622;46.220;19.878;2023-07-13T01:35:50;22.62;;;4.68;;
75941;SDS011;64622;46.220;19.878;2023-07-13T01:38:18;17.57;;;4.43;;
75941;SDS011;64622;46.220;19.878;2023-07-13T01:40:47;12.70;;;4.20;;
75941;SDS011;64622;46.220;19.878;2023-07-13T01:43:13;15.52;;;4.53;;
75941;SDS011;64622;46.220;19.878;2023-07-13T01:45:40;15.02;;;4.22;;
75941;SDS011;64622;46.220;19.878;2023-07-13T01:48:09;17.12;;;4.50;;
75941;SDS011;64622;46.220;19.878;2023-07-13T01:50:36;19.87;;;4.33;;
75941;SDS011;64622;46.220;19.878;2023-07-13T01:53:03;20.67;;;5.47;;
75941;SDS011;64622;46.220;19.878;2023-07-13T01:55:30;19.05;;;5.12;;
75941;SDS011;64622;46.220;19.878;2023-07-13T01:57:57;15.02;;;4.90;;
75941;SDS011;64622;46.220;19.878;2023-07-13T02:00:24;17.37;;;5.25;;
75941;SDS011;64622;46.220;19.878;2023-07-13T02:02:51;16.80;;;4.53;;
75941;SDS011;64622;46.220;19.878;2023-07-13T02:05:18;17.20;;;4.80;;
75941;SDS011;64622;46.220;19.878;2023-07-13T02:07:45;18.77;;;4.53;;
75941;SDS011;64622;46.220;19.878;2023-07-13T02:10:12;17.40;;;5.22;;
75941;SDS011;64622;46.220;19.878;2023-07-13T02:12:39;18.98;;;4.82;;
75941;SDS011;64622;46.220;19.878;2023-07-13T02:15:07;17.00;;;4.57;;
75941;SDS011;64622;46.220;19.878;2023-07-13T02:17:35;24.67;;;5.47;;
75941;SDS011;64622;46.220;19.878;2023-07-13T02:20:02;19.70;;;4.93;;
75941;SDS011;64622;46.220;19.878;2023-07-13T02:22:31;21.25;;;4.78;;
75941;SDS011;64622;46.220;19.878;2023-07-13T02:24:57;17.62;;;4.78;;
75941;SDS011;64622;46.220;19.878;2023-07-13T02:27:24;19.27;;;4.90;;
75941;SDS011;64622;46.220;19.878;2023-07-13T02:29:51;16.83;;;5.07;;
75941;SDS011;64622;46.220;19.878;2023-07-13T02:32:19;16.30;;;4.57;;
75941;SDS011;64622;46.220;19.878;2023-07-13T02:34:46;17.10;;;4.70;;
75941;SDS011;64622;46.220;19.878;2023-07-13T02:37:13;18.35;;;4.85;;
75941;SDS011;64622;46.220;19.878;2023-07-13T02:39:40;15.53;;;4.63;;
75941;SDS011;64622;46.220;19.878;2023-07-13T02:42:07;20.48;;;5.03;;
75941;SDS011;64622;46.220;19.878;2023-07-13T02:44:34;15.10;;;4.60;;
75941;SDS011;64622;46.220;19.878;2023-07-13T02:47:00;34.63;;;5.82;;
75941;SDS011;64622;46.220;19.878;2023-07-13T02:49:27;15.60;;;4.70;;
75941;SDS011;64622;46.220;19.878;2023-07-13T02:51:54;19.60;;;4.83;;
75941;SDS011;64622;46.220;19.878;2023-07-13T02:54:21;16.83;;;4.32;;
75941;SDS011;64622;46.220;19.878;2023-07-13T02:56:50;18.27;;;4.50;;
75941;SDS011;64622;46.220;19.878;2023-07-13T02:59:17;17.15;;;4.95;;
75941;SDS011;64622;46.220;19.878;2023-07-13T03:01:43;18.98;;;5.50;;
75941;SDS011;64622;46.220;19.878;2023-07-13T03:04:10;18.50;;;4.40;;
75941;SDS011;64622;46.220;19.878;2023-07-13T03:06:39;17.90;;;4.30;;
75941;SDS011;64622;46.220;19.878;2023-07-13T03:09:06;17.00;;;4.93;;
75941;SDS011;64622;46.220;19.878;2023-07-13T03:11:34;15.85;;;4.57;;
75941;SDS011;64622;46.220;19.878;2023-07-13T03:14:02;21.70;;;5.60;;
75941;SDS011;64622;46.220;19.878;2023-07-13T03:16:29;19.83;;;5.37;;
75941;SDS011;64622;46.220;19.878;2023-07-13T03:18:55;15.55;;;4.43;;
75941;SDS011;64622;46.220;19.878;2023-07-13T03:21:23;19.02;;;4.45;;
75941;SDS011;64622;46.220;19.878;2023-07-13T03:23:50;21.67;;;5.47;;
75941;SDS011;64622;46.220;19.878;2023-07-13T03:26:18;31.67;;;5.90;;
75941;SDS011;64622;46.220;19.878;2023-07-13T03:28:46;29.77;;;6.00;;
75941;SDS011;64622;46.220;19.878;2023-07-13T03:31:15;23.52;;;5.47;;
75941;SDS011;64622;46.220;19.878;2023-07-13T03:33:43;19.70;;;5.53;;
75941;SDS011;64622;46.220;19.878;2023-07-13T03:36:13;14.63;;;4.80;;
75941;SDS011;64622;46.220;19.878;2023-07-13T03:38:47;20.20;;;4.95;;
75941;SDS011;64622;46.220;19.878;2023-07-13T03:41:20;18.90;;;4.83;;
75941;SDS011;64622;46.220;19.878;2023-07-13T03:43:49;17.83;;;4.82;;
75941;SDS011;64622;46.220;19.878;2023-07-13T03:46:16;20.90;;;5.35;;
75941;SDS011;64622;46.220;19.878;2023-07-13T03:48:44;23.35;;;4.75;;
75941;SDS011;64622;46.220;19.878;2023-07-13T03:51:13;22.55;;;5.72;;
75941;SDS011;64622;46.220;19.878;2023-07-13T03:53:42;22.37;;;5.13;;
75941;SDS011;64622;46.220;19.878;2023-07-13T03:56:11;21.45;;;5.20;;
75941;SDS011;64622;46.220;19.878;2023-07-13T03:58:41;20.20;;;4.95;;
75941;SDS011;64622;46.220;19.878;2023-07-13T04:01:10;17.80;;;4.82;;
75941;SDS011;64622;46.220;19.878;2023-07-13T04:03:39;21.92;;;6.10;;
75941;SDS011;64622;46.220;19.878;2023-07-13T04:06:06;27.23;;;5.30;;
75941;SDS011;64622;46.220;19.878;2023-07-13T04:08:42;19.08;;;5.35;;
75941;SDS011;64622;46.220;19.878;2023-07-13T04:11:08;17.50;;;5.25;;
75941;SDS011;64622;46.220;19.878;2023-07-13T04:13:35;21.60;;;5.72;;
75941;SDS011;64622;46.220;19.878;2023-07-13T04:16:02;23.48;;;4.93;;
75941;SDS011;64622;46.220;19.878;2023-07-13T04:18:28;28.57;;;5.70;;
75941;SDS011;64622;46.220;19.878;2023-07-13T04:20:55;18.25;;;4.97;;
75941;SDS011;64622;46.220;19.878;2023-07-13T04:23:22;20.75;;;5.00;;
75941;SDS011;64622;46.220;19.878;2023-07-13T04:25:49;14.85;;;4.47;;
75941;SDS011;64622;46.220;19.878;2023-07-13T04:28:19;21.48;;;4.97;;
75941;SDS011;64622;46.220;19.878;2023-07-13T04:30:48;24.77;;;4.60;;
75941;SDS011;64622;46.220;19.878;2023-07-13T04:33:15;19.42;;;4.97;;
75941;SDS011;64622;46.220;19.878;2023-07-13T04:35:49;22.75;;;5.87;;
75941;SDS011;64622;46.220;19.878;2023-07-13T04:38:26;45.42;;;5.65;;
75941;SDS011;64622;46.220;19.878;2023-07-13T04:40:55;21.87;;;4.78;;
75941;SDS011;64622;46.220;19.878;2023-07-13T04:43:23;16.03;;;4.47;;
75941;SDS011;64622;46.220;19.878;2023-07-13T04:45:53;22.40;;;5.05;;
75941;SDS011;64622;46.220;19.878;2023-07-13T04:48:20;22.00;;;4.82;;
75941;SDS011;64622;46.220;19.878;2023-07-13T04:50:47;21.35;;;4.70;;
75941;SDS011;64622;46.220;19.878;2023-07-13T04:53:19;16.92;;;4.30;;
75941;SDS011;64622;46.220;19.878;2023-07-13T04:55:46;24.03;;;5.30;;
75941;SDS011;64622;46.220;19.878;2023-07-13T04:58:13;16.02;;;4.93;;
75941;SDS011;64622;46.220;19.878;2023-07-13T05:00:39;23.02;;;5.45;;
75941;SDS011;64622;46.220;19.878;2023-07-13T05:03:06;15.35;;;5.00;;
75941;SDS011;64622;46.220;19.878;2023-07-13T05:05:33;23.65;;;5.75;;
75941;SDS011;64622;46.220;19.878;2023-07-13T05:08:00;21.93;;;5.77;;
75941;SDS011;64622;46.220;19.878;2023-07-13T05:10:26;23.27;;;5.95;;
75941;SDS011;64622;46.220;19.878;2023-07-13T05:12:53;17.58;;;6.18;;
75941;SDS011;64622;46.220;19.878;2023-07-13T05:15:22;18.15;;;5.45;;
75941;SDS011;64622;46.220;19.878;2023-07-13T05:17:50;18.37;;;5.60;;
75941;SDS011;64622;46.220;19.878;2023-07-13T05:20:17;16.13;;;5.00;;
75941;SDS011;64622;46.220;19.878;2023-07-13T05:22:45;21.30;;;5.95;;
75941;SDS011;64622;46.220;19.878;2023-07-13T05:25:15;21.17;;;5.60;;
75941;SDS011;64622;46.220;19.878;2023-07-13T05:27:42;16.80;;;5.50;;
75941;SDS011;64622;46.220;19.878;2023-07-13T05:30:08;20.70;;;5.35;;
75941;SDS011;64622;46.220;19.878;2023-07-13T05:32:37;15.37;;;4.03;;
75941;SDS011;64622;46.220;19.878;2023-07-13T05:35:04;17.92;;;4.53;;
75941;SDS011;64622;46.220;19.878;2023-07-13T05:37:31;18.55;;;4.25;;
75941;SDS011;64622;46.220;19.878;2023-07-13T05:39:58;18.05;;;3.40;;
75941;SDS011;64622;46.220;19.878;2023-07-13T05:42:25;15.10;;;4.03;;
75941;SDS011;64622;46.220;19.878;2023-07-13T05:44:51;9.83;;;3.03;;
75941;SDS011;64622;46.220;19.878;2023-07-13T05:47:18;21.98;;;4.07;;
75941;SDS011;64622;46.220;19.878;2023-07-13T05:49:45;12.82;;;3.45;;
75941;SDS011;64622;46.220;19.878;2023-07-13T05:52:11;14.48;;;3.10;;
75941;SDS011;64622;46.220;19.878;2023-07-13T05:54:38;9.70;;;2.42;;
75941;SDS011;64622;46.220;19.878;2023-07-13T05:57:04;9.20;;;2.10;;
75941;SDS011;64622;46.220;19.878;2023-07-13T05:59:31;10.73;;;1.75;;
75941;SDS011;64622;46.220;19.878;2023-07-13T06:01:58;9.30;;;1.80;;
75941;SDS011;64622;46.220;19.878;2023-07-13T06:04:24;22.27;;;3.67;;
75941;SDS011;64622;46.220;19.878;2023-07-13T06:06:51;11.25;;;2.35;;
75941;SDS011;64622;46.220;19.878;2023-07-13T06:09:17;8.30;;;2.10;;
75941;SDS011;64622;46.220;19.878;2023-07-13T06:11:44;7.75;;;2.05;;
75941;SDS011;64622;46.220;19.878;2023-07-13T06:14:11;10.27;;;2.08;;
75941;SDS011;64622;46.220;19.878;2023-07-13T06:16:39;10.10;;;2.03;;
75941;SDS011;64622;46.220;19.878;2023-07-13T06:19:07;9.30;;;3.10;;
75941;SDS011;64622;46.220;19.878;2023-07-13T06:21:34;9.03;;;2.37;;
75941;SDS011;64622;46.220;19.878;2023-07-13T06:24:00;9.95;;;2.33;;
75941;SDS011;64622;46.220;19.878;2023-07-13T06:26:27;9.73;;;2.30;;
75941;SDS011;64622;46.220;19.878;2023-07-13T06:28:54;9.95;;;2.58;;
75941;SDS011;64622;46.220;19.878;2023-07-13T06:31:21;8.40;;;2.10;;
75941;SDS011;64622;46.220;19.878;2023-07-13T06:33:48;12.23;;;2.53;;
75941;SDS011;64622;46.220;19.878;2023-07-13T06:36:14;9.77;;;1.83;;
75941;SDS011;64622;46.220;19.878;2023-07-13T06:38:41;8.10;;;2.03;;
75941;SDS011;64622;46.220;19.878;2023-07-13T06:41:08;8.43;;;1.92;;
75941;SDS011;64622;46.220;19.878;2023-07-13T06:43:34;11.12;;;2.00;;
75941;SDS011;64622;46.220;19.878;2023-07-13T06:46:01;11.47;;;2.20;;
75941;SDS011;64622;46.220;19.878;2023-07-13T06:48:28;8.18;;;2.10;;
75941;SDS011;64622;46.220;19.878;2023-07-13T06:50:55;7.95;;;1.92;;
75941;SDS011;64622;46.220;19.878;2023-07-13T06:53:22;8.88;;;1.70;;
75941;SDS011;64622;46.220;19.878;2023-07-13T06:55:50;8.95;;;2.03;;
75941;SDS011;64622;46.220;19.878;2023-07-13T06:58:17;9.47;;;1.90;;
75941;SDS011;64622;46.220;19.878;2023-07-13T07:00:45;8.80;;;1.60;;
75941;SDS011;64622;46.220;19.878;2023-07-13T07:03:13;10.13;;;2.00;;
75941;SDS011;64622;46.220;19.878;2023-07-13T07:05:39;8.95;;;2.05;;
75941;SDS011;64622;46.220;19.878;2023-07-13T07:08:06;8.55;;;2.20;;
75941;SDS011;64622;46.220;19.878;2023-07-13T07:10:33;8.37;;;1.83;;
75941;SDS011;64622;46.220;19.878;2023-07-13T07:13:01;9.70;;;1.90;;
75941;SDS011;64622;46.220;19.878;2023-07-13T07:15:27;9.18;;;1.50;;
75941;SDS011;64622;46.220;19.878;2023-07-13T07:17:55;6.97;;;1.70;;
75941;SDS011;64622;46.220;19.878;2023-07-13T07:20:21;9.75;;;1.87;;
75941;SDS011;64622;46.220;19.878;2023-07-13T07:22:48;8.33;;;1.70;;
75941;SDS011;64622;46.220;19.878;2023-07-13T07:25:15;8.40;;;2.00;;
75941;SDS011;64622;46.220;19.878;2023-07-13T07:27:42;10.13;;;1.70;;
75941;SDS011;64622;46.220;19.878;2023-07-13T07:30:09;10.07;;;1.50;;
75941;SDS011;64622;46.220;19.878;2023-07-13T07:32:37;6.72;;;1.20;;
75941;SDS011;64622;46.220;19.878;2023-07-13T07:35:03;5.50;;;1.10;;
75941;SDS011;64622;46.220;19.878;2023-07-13T07:37:30;7.18;;;1.17;;
75941;SDS011;64622;46.220;19.878;2023-07-13T07:39:57;6.53;;;1.02;;
75941;SDS011;64622;46.220;19.878;2023-07-13T07:42:24;8.27;;;1.10;;
75941;SDS011;64622;46.220;19.878;2023-07-13T07:44:51;5.93;;;1.02;;
75941;SDS011;64622;46.220;19.878;2023-07-13T07:47:18;6.70;;;1.10;;
75941;SDS011;64622;46.220;19.878;2023-07-13T07:49:45;7.50;;;1.08;;
75941;SDS011;64622;46.220;19.878;2023-07-13T07:52:11;5.75;;;1.12;;
75941;SDS011;64622;46.220;19.878;2023-07-13T07:54:38;7.60;;;1.40;;
75941;SDS011;64622;46.220;19.878;2023-07-13T07:57:05;6.70;;;1.40;;
75941;SDS011;64622;46.220;19.878;2023-07-13T07:59:31;7.13;;;1.50;;
75941;SDS011;64622;46.220;19.878;2023-07-13T08:01:58;6.65;;;1.55;;
75941;SDS011;64622;46.220;19.878;2023-07-13T08:04:25;7.87;;;1.40;;
75941;SDS011;64622;46.220;19.878;2023-07-13T08:06:51;9.73;;;1.50;;
75941;SDS011;64622;46.220;19.878;2023-07-13T08:09:18;7.28;;;1.30;;
75941;SDS011;64622;46.220;19.878;2023-07-13T08:11:45;5.90;;;1.23;;
75941;SDS011;64622;46.220;19.878;2023-07-13T08:14:11;9.30;;;1.30;;
75941;SDS011;64622;46.220;19.878;2023-07-13T08:16:38;7.80;;;1.40;;
75941;SDS011;64622;46.220;19.878;2023-07-13T08:19:05;7.20;;;1.17;;
75941;SDS011;64622;46.220;19.878;2023-07-13T08:21:32;6.82;;;1.10;;
75941;SDS011;64622;46.220;19.878;2023-07-13T08:23:58;6.37;;;1.03;;
75941;SDS011;64622;46.220;19.878;2023-07-13T08:26:25;6.57;;;1.02;;
75941;SDS011;64622;46.220;19.878;2023-07-13T08:28:51;5.65;;;0.93;;
75941;SDS011;64622;46.220;19.878;2023-07-13T08:31:18;6.75;;;1.27;;
75941;SDS011;64622;46.220;19.878;2023-07-13T08:33:45;9.10;;;1.20;;
75941;SDS011;64622;46.220;19.878;2023-07-13T08:36:11;7.90;;;1.33;;
75941;SDS011;64622;46.220;19.878;2023-07-13T08:38:38;7.90;;;1.08;;
75941;SDS011;64622;46.220;19.878;2023-07-13T08:41:12;9.02;;;1.15;;
75941;SDS011;64622;46.220;19.878;2023-07-13T08:43:41;7.87;;;1.10;;
75941;SDS011;64622;46.220;19.878;2023-07-13T08:46:13;6.93;;;1.20;;
75941;SDS011;64622;46.220;19.878;2023-07-13T08:48:47;6.00;;;1.00;;
75941;SDS011;64622;46.220;19.878;2023-07-13T08:54:01;6.20;;;1.23;;
75941;SDS011;64622;46.220;19.878;2023-07-13T08:56:31;6.30;;;0.90;;
75941;SDS011;64622;46.220;19.878;2023-07-13T08:59:06;7.65;;;1.00;;
75941;SDS011;64622;46.220;19.878;2023-07-13T09:02:00;6.90;;;1.27;;
75941;SDS011;64622;46.220;19.878;2023-07-13T09:04:48;6.60;;;1.20;;
75941;SDS011;64622;46.220;19.878;2023-07-13T09:15:17;6.90;;;0.90;;
75941;SDS011;64622;46.220;19.878;2023-07-13T09:17:51;4.82;;;0.80;;
75941;SDS011;64622;46.220;19.878;2023-07-13T09:20:24;8.00;;;0.98;;
75941;SDS011;64622;46.220;19.878;2023-07-13T09:23:05;4.78;;;0.73;;
75941;SDS011;64622;46.220;19.878;2023-07-13T09:25:37;6.37;;;0.90;;
75941;SDS011;64622;46.220;19.878;2023-07-13T09:28:17;6.97;;;1.00;;
75941;SDS011;64622;46.220;19.878;2023-07-13T09:31:09;6.32;;;0.80;;
75941;SDS011;64622;46.220;19.878;2023-07-13T09:33:40;4.95;;;0.70;;
75941;SDS011;64622;46.220;19.878;2023-07-13T09:36:26;5.32;;;0.70;;
75941;SDS011;64622;46.220;19.878;2023-07-13T09:41:40;7.53;;;0.60;;
75941;SDS011;64622;46.220;19.878;2023-07-13T09:44:34;4.65;;;0.60;;
75941;SDS011;64622;46.220;19.878;2023-07-13T09:47:15;6.18;;;0.80;;
75941;SDS011;64622;46.220;19.878;2023-07-13T09:49:44;4.60;;;0.55;;
75941;SDS011;64622;46.220;19.878;2023-07-13T09:52:12;6.28;;;0.70;;
75941;SDS011;64622;46.220;19.878;2023-07-13T09:54:48;4.33;;;0.50;;
75941;SDS011;64622;46.220;19.878;2023-07-13T09:57:17;4.18;;;0.55;;
75941;SDS011;64622;46.220;19.878;2023-07-13T09:59:46;6.12;;;0.75;;
75941;SDS011;64622;46.220;19.878;2023-07-13T10:04:55;5.45;;;0.77;;
75941;SDS011;64622;46.220;19.878;2023-07-13T10:07:24;6.63;;;0.70;;
75941;SDS011;64622;46.220;19.878;2023-07-13T10:09:51;3.95;;;0.62;;
75941;SDS011;64622;46.220;19.878;2023-07-13T10:12:20;4.75;;;0.60;;
75941;SDS011;64622;46.220;19.878;2023-07-13T10:14:50;7.18;;;0.80;;
75941;SDS011;64622;46.220;19.878;2023-07-13T10:17:26;5.40;;;0.80;;
75941;SDS011;64622;46.220;19.878;2023-07-13T10:20:00;5.03;;;0.80;;
75941;SDS011;64622;46.220;19.878;2023-07-13T10:22:51;6.30;;;0.70;;
75941;SDS011;64622;46.220;19.878;2023-07-13T10:25:22;5.78;;;0.70;;
75941;SDS011;64622;46.220;19.878;2023-07-13T10:27:52;4.90;;;0.60;;
75941;SDS011;64622;46.220;19.878;2023-07-13T10:30:25;4.50;;;0.77;;
75941;SDS011;64622;46.220;19.878;2023-07-13T10:32:58;5.30;;;0.70;;
75941;SDS011;64622;46.220;19.878;2023-07-13T10:35:26;6.43;;;0.65;;
75941;SDS011;64622;46.220;19.878;2023-07-13T10:38:02;5.15;;;0.65;;
75941;SDS011;64622;46.220;19.878;2023-07-13T10:40:37;5.62;;;0.85;;
75941;SDS011;64622;46.220;19.878;2023-07-13T10:43:15;4.62;;;0.75;;
75941;SDS011;64622;46.220;19.878;2023-07-13T10:45:49;5.30;;;0.70;;
75941;SDS011;64622;46.220;19.878;2023-07-13T10:49:46;5.15;;;0.85;;
75941;SDS011;64622;46.220;19.878;2023-07-13T10:58:02;7.20;;;1.03;;
75941;SDS011;64622;46.220;19.878;2023-07-13T11:01:21;4.93;;;0.70;;
75941;SDS011;64622;46.220;19.878;2023-07-13T11:18:46;6.07;;;1.00;;
75941;SDS011;64622;46.220;19.878;2023-07-13T11:21:16;5.65;;;1.10;;
75941;SDS011;64622;46.220;19.878;2023-07-13T11:23:44;5.23;;;1.00;;
75941;SDS011;64622;46.220;19.878;2023-07-13T11:31:51;5.97;;;1.00;;
75941;SDS011;64622;46.220;19.878;2023-07-13T11:34:27;5.35;;;1.08;;
75941;SDS011;64622;46.220;19.878;2023-07-13T11:37:02;5.80;;;0.80;;
75941;SDS011;64622;46.220;19.878;2023-07-13T11:39:33;6.45;;;1.00;;
75941;SDS011;64622;46.220;19.878;2023-07-13T11:42:05;5.00;;;0.93;;
75941;SDS011;64622;46.220;19.878;2023-07-13T11:44:41;5.93;;;1.00;;
75941;SDS011;64622;46.220;19.878;2023-07-13T11:47:11;4.00;;;0.70;;
75941;SDS011;64622;46.220;19.878;2023-07-13T11:49:44;4.67;;;0.90;;
75941;SDS011;64622;46.220;19.878;2023-07-13T11:52:24;6.87;;;0.98;;
75941;SDS011;64622;46.220;19.878;2023-07-13T11:54:59;6.85;;;1.08;;
75941;SDS011;64622;46.220;19.878;2023-07-13T11:57:30;5.18;;;0.82;;
75941;SDS011;64622;46.220;19.878;2023-07-13T12:00:03;4.18;;;0.65;;
75941;SDS011;64622;46.220;19.878;2023-07-13T12:02:39;4.30;;;0.87;;
75941;SDS011;64622;46.220;19.878;2023-07-13T12:05:10;5.53;;;0.80;;
75941;SDS011;64622;46.220;19.878;2023-07-13T12:07:39;5.37;;;1.02;;
75941;SDS011;64622;46.220;19.878;2023-07-13T12:12:36;4.60;;;0.90;;
75941;SDS011;64622;46.220;19.878;2023-07-13T12:15:07;5.53;;;1.00;;
75941;SDS011;64622;46.220;19.878;2023-07-13T12:17:34;6.07;;;1.10;;
75941;SDS011;64622;46.220;19.878;2023-07-13T12:20:03;5.25;;;0.90;;
75941;SDS011;64622;46.220;19.878;2023-07-13T12:22:47;4.20;;;0.90;;
75941;SDS011;64622;46.220;19.878;2023-07-13T12:25:15;5.22;;;1.45;;
75941;SDS011;64622;46.220;19.878;2023-07-13T12:27:47;18.47;;;1.30;;
75941;SDS011;64622;46.220;19.878;2023-07-13T12:33:24;8.75;;;1.60;;
75941;SDS011;64622;46.220;19.878;2023-07-13T12:35:45;6.15;;;1.23;;
75941;SDS011;64622;46.220;19.878;2023-07-13T12:38:14;5.62;;;1.17;;
75941;SDS011;64622;46.220;19.878;2023-07-13T12:40:43;5.50;;;1.30;;
75941;SDS011;64622;46.220;19.878;2023-07-13T12:43:12;6.95;;;1.52;;
75941;SDS011;64622;46.220;19.878;2023-07-13T12:45:54;7.95;;;1.45;;
75941;SDS011;64622;46.220;19.878;2023-07-13T12:48:22;6.82;;;1.50;;
75941;SDS011;64622;46.220;19.878;2023-07-13T12:50:49;5.68;;;1.48;;
75941;SDS011;64622;46.220;19.878;2023-07-13T12:53:19;9.77;;;1.73;;
75941;SDS011;64622;46.220;19.878;2023-07-13T12:55:55;7.70;;;2.20;;
75941;SDS011;64622;46.220;19.878;2023-07-13T12:58:39;6.70;;;1.90;;
75941;SDS011;64622;46.220;19.878;2023-07-13T13:01:13;8.23;;;1.90;;
75941;SDS011;64622;46.220;19.878;2023-07-13T13:03:44;7.28;;;2.17;;
75941;SDS011;64622;46.220;19.878;2023-07-13T13:08:42;9.50;;;2.40;;
75941;SDS011;64622;46.220;19.878;2023-07-13T13:11:09;7.12;;;1.98;;
75941;SDS011;64622;46.220;19.878;2023-07-13T13:13:36;7.65;;;2.00;;
75941;SDS011;64622;46.220;19.878;2023-07-13T13:16:12;7.15;;;1.98;;
75941;SDS011;64622;46.220;19.878;2023-07-13T13:18:46;8.77;;;2.40;;
75941;SDS011;64622;46.220;19.878;2023-07-13T13:21:12;9.13;;;1.95;;
75941;SDS011;64622;46.220;19.878;2023-07-13T13:23:39;7.85;;;1.92;;
75941;SDS011;64622;46.220;19.878;2023-07-13T13:26:10;6.70;;;1.77;;
75941;SDS011;64622;46.220;19.878;2023-07-13T13:28:38;7.55;;;1.90;;
75941;SDS011;64622;46.220;19.878;2023-07-13T13:31:04;9.43;;;1.70;;
75941;SDS011;64622;46.220;19.878;2023-07-13T13:33:33;6.93;;;1.62;;
75941;SDS011;64622;46.220;19.878;2023-07-13T13:35:59;9.48;;;1.75;;
75941;SDS011;64622;46.220;19.878;2023-07-13T13:38:27;7.40;;;1.62;;
75941;SDS011;64622;46.220;19.878;2023-07-13T13:40:54;6.43;;;1.87;;
75941;SDS011;64622;46.220;19.878;2023-07-13T13:43:22;7.73;;;1.80;;
75941;SDS011;64622;46.220;19.878;2023-07-13T13:45:57;7.53;;;1.80;;
75941;SDS011;64622;46.220;19.878;2023-07-13T13:48:32;7.18;;;1.83;;
75941;SDS011;64622;46.220;19.878;2023-07-13T13:51:00;7.45;;;1.80;;
75941;SDS011;64622;46.220;19.878;2023-07-13T13:53:33;6.90;;;2.10;;
75941;SDS011;64622;46.220;19.878;2023-07-13T13:55:59;8.77;;;2.03;;
75941;SDS011;64622;46.220;19.878;2023-07-13T13:58:26;14.10;;;2.25;;
75941;SDS011;64622;46.220;19.878;2023-07-13T14:00:53;9.80;;;1.70;;
75941;SDS011;64622;46.220;19.878;2023-07-13T14:03:20;5.93;;;1.70;;
75941;SDS011;64622;46.220;19.878;2023-07-13T14:05:48;7.12;;;1.67;;
75941;SDS011;64622;46.220;19.878;2023-07-13T14:08:17;9.03;;;1.90;;
75941;SDS011;64622;46.220;19.878;2023-07-13T14:10:46;8.20;;;1.83;;
75941;SDS011;64622;46.220;19.878;2023-07-13T14:13:16;5.62;;;1.70;;
75941;SDS011;64622;46.220;19.878;2023-07-13T14:15:46;9.68;;;1.90;;
75941;SDS011;64622;46.220;19.878;2023-07-13T14:18:14;8.68;;;1.87;;
75941;SDS011;64622;46.220;19.878;2023-07-13T14:20:44;8.80;;;1.80;;
75941;SDS011;64622;46.220;19.878;2023-07-13T14:23:13;8.07;;;1.85;;
75941;SDS011;64622;46.220;19.878;2023-07-13T14:25:42;7.40;;;1.62;;
75941;SDS011;64622;46.220;19.878;2023-07-13T14:28:23;8.75;;;2.17;;
75941;SDS011;64622;46.220;19.878;2023-07-13T14:30:51;11.05;;;2.00;;
75941;SDS011;64622;46.220;19.878;2023-07-13T14:33:20;10.07;;;1.80;;
75941;SDS011;64622;46.220;19.878;2023-07-13T14:35:47;11.12;;;6.10;;
75941;SDS011;64622;46.220;19.878;2023-07-13T14:38:15;8.98;;;2.10;;
75941;SDS011;64622;46.220;19.878;2023-07-13T14:40:44;9.50;;;2.03;;
75941;SDS011;64622;46.220;19.878;2023-07-13T14:43:11;7.80;;;2.50;;
75941;SDS011;64622;46.220;19.878;2023-07-13T14:45:41;8.03;;;2.10;;
75941;SDS011;64622;46.220;19.878;2023-07-13T14:48:16;8.68;;;2.17;;
75941;SDS011;64622;46.220;19.878;2023-07-13T14:50:46;10.35;;;2.10;;
75941;SDS011;64622;46.220;19.878;2023-07-13T14:53:14;8.23;;;1.90;;
75941;SDS011;64622;46.220;19.878;2023-07-13T14:55:40;7.37;;;1.80;;
75941;SDS011;64622;46.220;19.878;2023-07-13T14:58:09;7.77;;;2.07;;
75941;SDS011;64622;46.220;19.878;2023-07-13T15:00:36;8.75;;;2.10;;
75941;SDS011;64622;46.220;19.878;2023-07-13T15:03:03;9.43;;;1.98;;
75941;SDS011;64622;46.220;19.878;2023-07-13T15:05:32;8.77;;;1.90;;
75941;SDS011;64622;46.220;19.878;2023-07-13T15:08:00;8.45;;;1.98;;
75941;SDS011;64622;46.220;19.878;2023-07-13T15:10:30;7.17;;;1.80;;
75941;SDS011;64622;46.220;19.878;2023-07-13T15:13:00;8.52;;;1.90;;
75941;SDS011;64622;46.220;19.878;2023-07-13T15:15:38;9.20;;;2.00;;
75941;SDS011;64622;46.220;19.878;2023-07-13T15:18:11;8.05;;;2.20;;
75941;SDS011;64622;46.220;19.878;2023-07-13T15:20:38;8.40;;;2.30;;
75941;SDS011;64622;46.220;19.878;2023-07-13T15:23:05;10.17;;;3.67;;
75941;SDS011;64622;46.220;19.878;2023-07-13T15:25:33;7.70;;;1.90;;
75941;SDS011;64622;46.220;19.878;2023-07-13T15:28:00;7.35;;;1.75;;
75941;SDS011;64622;46.220;19.878;2023-07-13T15:30:31;6.53;;;1.60;;
75941;SDS011;64622;46.220;19.878;2023-07-13T15:33:05;12.35;;;2.20;;
75941;SDS011;64622;46.220;19.878;2023-07-13T15:35:37;8.47;;;1.90;;